Data for 07/22/2010

Time Sea-Level Adjusted Pressure Absolute Pressure Temperature Relative Humidity Dew Point   
(mb) (inHg) (mb) (inHg) (C) (F) (%) (C) (F)
00:05 1018 30.06 847 25.01 14 57.2 74 9.6 49.2
00:10 1018 30.06 847 25.01 14.2 57.6 73 9.6 49.2
00:15 1017 30.03 847 25.01 14.3 57.8 72 9.4 48.9
00:20 1017 30.03 847 25.01 14.4 58 71 9.4 48.8
00:25 1017 30.03 846 24.98 14.6 58.3 70 9.3 48.8
00:30 1017 30.03 846 24.98 14.8 58.6 68 9.1 48.4
00:35 1017 30.03 846 24.98 14.8 58.7 66 8.7 47.6
00:40 1017 30.03 846 24.98 14.8 58.7 66 8.6 47.5
00:45 1017 30.03 846 24.98 14.5 58.1 73 9.7 49.4
00:50 1017 30.03 846 24.98 14 57.3 72 9 48.2
00:55 1017 30.03 846 24.98 14.2 57.5 69 8.5 47.4
01:00 1017 30.03 846 24.98 14.4 57.9 69 8.9 48
01:05 1017 30.03 846 24.98 14.3 57.7 69 8.6 47.5
01:10 1017 30.03 846 24.98 14.2 57.5 69 8.6 47.5
01:15 1017 30.03 846 24.98 14.2 57.5 67 8.1 46.6
01:20 1017 30.03 846 24.98 14.5 58.1 65 8.2 46.7
01:25 1017 30.03 846 24.98 14.6 58.3 66 8.3 46.9
01:30 1017 30.03 846 24.98 14.5 58.1 67 8.4 47.2
01:35 1017 30.03 846 24.98 14.3 57.7 70 9 48.2
01:40 1017 30.03 846 24.98 14.1 57.4 72 9.1 48.4
01:45 1017 30.03 846 24.98 14 57.1 72 9.1 48.4
01:50 1017 30.03 846 24.98 13.9 57 72 9 48.2
01:55 1017 30.03 846 24.98 13.8 56.9 72 9 48.2
02:00 1017 30.03 846 24.98 13.8 56.8 73 9.1 48.3
02:05 1017 30.03 846 24.98 13.7 56.7 73 9.1 48.4
02:10 1017 30.03 846 24.98 13.5 56.3 74 9.1 48.3
02:15 1017 30.03 846 24.98 13.4 56.1 76 9.2 48.6
02:20 1017 30.03 846 24.98 13.3 55.9 77 9.3 48.8
02:25 1017 30.03 846 24.98 13.1 55.6 78 9.3 48.8
02:30 1017 30.03 846 24.98 13 55.4 78 9.3 48.7
02:35 1017 30.03 846 24.98 12.9 55.2 79 9.3 48.7
02:40 1017 30.03 847 25.01 12.8 55.1 79 9.2 48.6
02:45 1017 30.03 847 25.01 12.8 55.1 79 9.2 48.6
02:50 1017 30.03 847 25.01 12.8 55 79 9.3 48.8
02:55 1017 30.03 847 25.01 12.6 54.6 81 9.3 48.8
03:00 1017 30.03 847 25.01 12.5 54.5 80 9.2 48.6
03:05 1017 30.03 847 25.01 12.3 54.1 81 9.2 48.5
03:10 1017 30.03 847 25.01 11.9 53.3 81 8.7 47.7
03:15 1017 30.03 847 25.01 11.5 52.7 83 8.7 47.6
03:20 1018 30.06 847 25.01 11.2 52.2 84 8.6 47.5
03:25 1017 30.03 847 25.01 10.9 51.7 84 8.4 47.2
03:30 1017 30.03 847 25.01 10.6 51.1 86 8.3 46.9
03:35 1017 30.03 847 25.01 10.5 50.9 86 8.3 46.9
03:40 1017 30.03 847 25.01 10.5 50.9 86 8.3 47
03:45 1017 30.03 847 25.01 10.5 50.9 86 8.3 47
03:50 1017 30.03 847 25.01 10.5 50.9 86 8.3 47
03:55 1018 30.06 847 25.01 10.4 50.6 87 8.3 47
04:00 1018 30.06 847 25.01 10.3 50.5 87 8.2 46.8
04:05 1018 30.06 847 25.01 10.4 50.7 86 8.2 46.8
04:10 1018 30.06 847 25.01 10.2 50.4 87 8.2 46.7
04:15 1018 30.06 847 25.01 10 50.1 88 8.1 46.7
04:20 1018 30.06 847 25.01 10 50 88 8.1 46.6
04:25 1018 30.06 847 25.01 10.1 50.3 87 8 46.5
04:30 1018 30.06 847 25.01 10.3 50.5 86 8.1 46.6
04:35 1018 30.06 847 25.01 10.2 50.3 87 8 46.5
04:40 1018 30.06 847 25.01 10 49.9 87 7.9 46.2
04:45 1018 30.06 847 25.01 9.8 49.7 87 7.8 46
04:50 1018 30.06 847 25.01 9.8 49.6 87 7.8 46
04:55 1018 30.06 847 25.01 9.7 49.5 87 7.7 45.8
05:00 1017 30.03 847 25.01 9.8 49.6 87 7.7 45.8
05:05 1018 30.06 847 25.01 9.8 49.7 87 7.7 45.9
05:10 1018 30.06 847 25.01 9.8 49.6 87 7.7 45.8
05:15 1018 30.06 847 25.01 9.6 49.3 87 7.6 45.6
05:20 1018 30.06 847 25.01 9.5 49.2 87 7.5 45.5
05:25 1018 30.06 847 25.01 9.5 49.1 87 7.5 45.5
05:30 1018 30.06 847 25.01 9.5 49.1 87 7.4 45.3
05:35 1018 30.06 847 25.01 9.5 49.1 87 7.4 45.3
05:40 1018 30.06 847 25.01 9.4 48.9 87 7.3 45.2
05:45 1018 30.06 847 25.01 9.3 48.8 87 7.3 45.1
05:50 1018 30.06 847 25.01 9.3 48.7 87 7.3 45.1
05:55 1018 30.06 847 25.01 9.2 48.6 88 7.3 45.2
06:00 1018 30.06 847 25.01 9.3 48.7 87 7.3 45.1
06:05 1018 30.06 847 25.01 9.3 48.7 87 7.3 45.1
06:10 1018 30.06 847 25.01 9.2 48.6 87 7.3 45.1
06:15 1018 30.06 847 25.01 9.2 48.5 88 7.2 45
06:20 1018 30.06 847 25.01 9.3 48.7 86 7.1 44.8
06:25 1018 30.06 847 25.01 9.5 49 86 7.2 45
06:30 1018 30.06 847 25.01 9.5 49 86 7.3 45.1
06:35 1018 30.06 847 25.01 9.6 49.2 86 7.3 45.1
06:40 1018 30.06 847 25.01 9.7 49.5 85 7.3 45.1
06:45 1018 30.06 847 25.01 9.9 49.7 84 7.4 45.2
06:50 1018 30.06 847 25.01 10 49.9 83 7.3 45.1
06:55 1018 30.06 847 25.01 10.1 50.2 84 7.5 45.5
07:00 1018 30.06 847 25.01 10.3 50.6 82 7.4 45.4
07:05 1018 30.06 847 25.01 10.5 50.9 82 7.6 45.6
07:10 1018 30.06 847 25.01 10.8 51.4 81 7.7 45.8
07:15 1018 30.06 847 25.01 10.9 51.6 81 7.7 45.9
07:20 1018 30.06 847 25.01 11.1 52 79 7.7 45.8
07:25 1018 30.06 847 25.01 11.3 52.3 79 7.7 45.9
07:30 1018 30.06 847 25.01 11.5 52.7 77 7.7 45.9
07:35 1018 30.06 847 25.01 11.7 53.1 78 8 46.3
07:40 1018 30.06 847 25.01 11.8 53.3 78 8 46.5
07:45 1018 30.06 847 25.01 12 53.6 77 8.2 46.7
07:50 1018 30.06 847 25.01 12.5 54.5 75 8.2 46.7
07:55 1018 30.06 847 25.01 13.4 56.1 71 8.4 47
08:00 1018 30.06 847 25.01 13.8 56.8 71 8.6 47.5
08:05 1018 30.06 847 25.01 14.3 57.8 68 8.5 47.3
08:10 1018 30.06 847 25.01 14.6 58.3 68 8.9 48
08:15 1018 30.06 847 25.01 15 59 69 9.4 48.9
08:20 1018 30.06 847 25.01 15.4 59.8 65 8.9 48
08:25 1018 30.06 847 25.01 15.9 60.7 62 8.6 47.5
08:30 1018 30.06 847 25.01 16.3 61.3 63 9.2 48.5
08:35 1018 30.06 847 25.01 15.7 60.2 64 9 48.2
08:40 1018 30.06 847 25.01 15.9 60.6 62 8.6 47.5
08:45 1018 30.06 847 25.01 16.1 61.1 61 8.7 47.7
08:50 1018 30.06 847 25.01 16 60.8 62 8.9 48
08:55 1018 30.06 847 25.01 15.6 60 63 8.7 47.7
09:00 1018 30.06 847 25.01 15.7 60.2 63 8.8 47.8
09:05 1018 30.06 847 25.01 16.1 61 60 8.4 47.2
09:10 1018 30.06 847 25.01 16.7 62.1 60 8.9 48
09:15 1018 30.06 847 25.01 17.1 62.7 58 8.8 47.9
09:20 1018 30.06 847 25.01 16.7 62.1 61 9.3 48.8
09:25 1018 30.06 847 25.01 17.2 62.9 58 8.8 47.8
09:30 1018 30.06 847 25.01 18 64.4 56 9.2 48.5
09:35 1018 30.06 847 25.01 18.2 64.7 55 9 48.3
09:40 1018 30.06 847 25.01 18.3 64.9 56 9.5 49.2
09:45 1018 30.06 847 25.01 17.7 63.8 57 9.1 48.4
09:50 1018 30.06 847 25.01 18.3 65 53 8.7 47.7
09:55 1018 30.06 847 25.01 18.2 64.8 57 9.6 49.3
10:00 1017 30.03 847 25.01 18.8 65.8 51 8.7 47.7
10:05 1017 30.03 847 25.01 19.4 66.8 52 9.5 49
10:10 1017 30.03 847 25.01 19.8 67.6 50 9.2 48.6
10:15 1017 30.03 847 25.01 19.8 67.7 50 9.4 48.8
10:20 1017 30.03 847 25.01 20.2 68.3 51 9.8 49.7
10:25 1017 30.03 847 25.01 20 67.9 48 8.8 47.9
10:30 1017 30.03 846 24.98 20.1 68.2 52 10 50
10:35 1017 30.03 846 24.98 19.5 67.1 49 8.6 47.5
10:40 1017 30.03 846 24.98 19.1 66.4 53 9.5 49
10:45 1017 30.03 846 24.98 19.7 67.5 50 9.1 48.4
10:50 1017 30.03 846 24.98 19.5 67.1 54 10.1 50.2
10:55 1017 30.03 846 24.98 19.2 66.6 52 9.2 48.5
11:00 1017 30.03 846 24.98 20 67.9 48 8.8 47.9
11:05 1017 30.03 846 24.98 20.2 68.4 51 10 50
11:10 1017 30.03 846 24.98 20.3 68.5 47 8.8 47.9
11:15 1017 30.03 846 24.98 21.6 70.8 45 9.3 48.8
11:20 1017 30.03 846 24.98 21.6 70.9 44 8.9 48.1
11:25 1017 30.03 846 24.98 22.1 71.7 44 9.3 48.8
11:30 1017 30.03 846 24.98 22.1 71.9 44 9.4 48.9
11:35 1017 30.03 846 24.98 21.7 71 46 9.8 49.7
11:40 1017 30.03 846 24.98 21.5 70.7 45 9.1 48.4
11:45 1016 30 846 24.98 20.9 69.6 48 9.8 49.6
11:50 1016 30 846 24.98 21.5 70.7 42 8.2 46.8
11:55 1016 30 846 24.98 22.2 72 39 7.7 45.9
12:00 1016 30 846 24.98 23.1 73.6 38 8.3 46.9
12:05 1016 30 846 24.98 23.2 73.8 40 9 48.3
12:10 1016 30 846 24.98 22.8 73 39 8.3 46.9
12:15 1016 30 846 24.98 22.6 72.7 39 8.1 46.6
12:20 1016 30 845 24.95 22.7 72.8 39 8.2 46.7
12:25 1016 30 845 24.95 22.4 72.2 41 8.8 47.8
12:30 1016 30 845 24.95 22.3 72.1 40 8.1 46.5
12:35 1016 30 845 24.95 22.3 72.2 39 8 46.4
12:40 1016 30 845 24.95 22.5 72.4 37 7.2 44.9
12:45 1016 30 845 24.95 23.3 73.9 36 7.6 45.6
12:50 1016 30 845 24.95 23.7 74.7 35 7.6 45.6
12:55 1016 30 845 24.95 23.9 75 34 7.1 44.8
13:00 1016 30 845 24.95 23.6 74.6 34 7.1 44.7
13:05 1016 30 845 24.95 23.9 74.9 34 7.3 45.1
13:10 1016 30 845 24.95 24.2 75.5 33 6.9 44.4
13:15 1016 30 845 24.95 24.6 76.3 34 7.9 46.2
13:20 1016 30 845 24.95 24.3 75.7 33 7.3 45.1
13:25 1016 30 845 24.95 24.4 75.9 33 7.2 45
13:30 1016 30 845 24.95 24.6 76.4 32 7.2 45
13:35 1016 30 845 24.95 24.4 75.9 32 6.7 44
13:40 1016 30 845 24.95 24.3 75.8 32 6.7 44.1
13:45 1016 30 845 24.95 24.7 76.4 33 7.6 45.7
13:50 1015 29.97 845 24.95 24.6 76.2 32 7.1 44.7
13:55 1015 29.97 845 24.95 25.4 77.8 31 7.5 45.5
14:00 1015 29.97 845 24.95 25 76.9 33 8 46.4
14:05 1015 29.97 845 24.95 24.8 76.6 32 7.3 45.1
14:10 1015 29.97 845 24.95 24.3 75.7 32 6.8 44.3
14:15 1015 29.97 844 24.92 24.8 76.7 32 7.2 45
14:20 1015 29.97 844 24.92 25.1 77.1 31 6.9 44.5
14:25 1015 29.97 844 24.92 24.7 76.4 32 7.2 44.9
14:30 1015 29.97 844 24.92 24.6 76.3 31 6.4 43.4
14:35 1015 29.97 844 24.92 25.6 78 29 6.3 43.4
14:40 1015 29.97 844 24.92 25.6 78 28 6.2 43.1
14:45 1015 29.97 844 24.92 25.6 78.1 29 6.6 43.8
14:50 1015 29.97 844 24.92 25.4 77.8 29 6.6 43.9
14:55 1015 29.97 844 24.92 25.6 78 28 5.8 42.5
15:00 1015 29.97 844 24.92 26.3 79.3 27 6.1 42.9
15:05 1015 29.97 844 24.92 25.9 78.6 29 6.7 44
15:10 1015 29.97 844 24.92 25.4 77.7 28 6 42.8
15:15 1015 29.97 844 24.92 25.7 78.2 27 5.5 41.9
15:20 1015 29.97 844 24.92 25.3 77.6 27 5.5 41.8
15:25 1014 29.94 844 24.92 25.4 77.7 28 5.7 42.3
15:30 1014 29.94 844 24.92 25.8 78.5 25 4.6 40.3
15:35 1014 29.94 844 24.92 26.4 79.4 24 4.3 39.8
15:40 1014 29.94 844 24.92 26.3 79.4 24 4.4 40
15:45 1014 29.94 844 24.92 26.8 80.2 24 4.6 40.3
15:50 1014 29.94 844 24.92 26.9 80.3 22 3.9 39
15:55 1014 29.94 843 24.89 27 80.5 22 3.5 38.3
16:00 1014 29.94 843 24.89 26.5 79.7 23 3.8 38.9
16:05 1014 29.94 843 24.89 26.5 79.7 23 4 39.3
16:10 1014 29.94 843 24.89 26.7 80.1 22 3.3 38
16:15 1014 29.94 843 24.89 27.3 81.2 21 3.7 38.6
16:20 1014 29.94 843 24.89 27 80.6 22 3.6 38.4
16:25 1014 29.94 843 24.89 26.9 80.4 22 3.7 38.7
16:30 1014 29.94 843 24.89 27.1 80.7 21 3.1 37.6
16:35 1014 29.94 843 24.89 27.2 80.9 23 4.5 40.1
16:40 1014 29.94 843 24.89 27.2 80.9 22 3.7 38.6
16:45 1014 29.94 843 24.89 27 80.6 23 4.5 40.1
16:50 1014 29.94 843 24.89 26.3 79.4 24 4.2 39.5
16:55 1014 29.94 843 24.89 26.4 79.6 22 3.5 38.2
17:00 1013 29.91 843 24.89 26.5 79.6 24 4.5 40.1
17:05 1013 29.91 843 24.89 26.1 78.9 23 3.5 38.3
17:10 1013 29.91 843 24.89 25.8 78.4 23 3.5 38.3
17:15 1013 29.91 843 24.89 26.3 79.4 22 3.3 38
17:20 1013 29.91 842 24.86 26.7 80 22 3.5 38.3
17:25 1013 29.91 842 24.86 26.5 79.7 22 3.5 38.3
17:30 1013 29.91 842 24.86 26.3 79.4 22 3.3 38
17:35 1013 29.91 842 24.86 26.4 79.4 20 1.6 34.9
17:40 1013 29.91 842 24.86 26.7 80.1 22 3.6 38.5
17:45 1013 29.91 842 24.86 26.3 79.3 23 3.8 38.8
17:50 1013 29.91 842 24.86 26.8 80.2 18 1.1 34
17:55 1013 29.91 842 24.86 26.7 80.1 23 4.4 39.9
18:00 1013 29.91 842 24.86 26.1 79 23 3.7 38.7
18:05 1013 29.91 842 24.86 25.7 78.3 25 4.4 40
18:10 1013 29.91 842 24.86 25.8 78.5 25 4.5 40.1
18:15 1013 29.91 842 24.86 25.9 78.6 23 3.6 38.4
18:20 1013 29.91 842 24.86 25.6 78.1 24 4 39.2
18:25 1013 29.91 842 24.86 25.6 78.1 24 4 39.3
18:30 1013 29.91 842 24.86 25.4 77.7 24 3.6 38.4
18:35 1013 29.91 842 24.86 25.3 77.6 24 3.8 38.9
18:40 1013 29.91 842 24.86 25.5 78 19 0.6 33.1
18:45 1013 29.91 842 24.86 25.8 78.4 22 2.9 37.3
18:50 1013 29.91 842 24.86 25.8 78.5 23 3.1 37.6
18:55 1013 29.91 842 24.86 25.7 78.3 22 2.5 36.5
19:00 1013 29.91 842 24.86 25.3 77.6 24 3.3 37.9
19:05 1013 29.91 842 24.86 25.1 77.1 24 3.1 37.6
19:10 1012 29.88 842 24.86 25 76.9 23 2.8 37.1
19:15 1013 29.91 842 24.86 25 76.9 24 3.4 38.1
19:20 1013 29.91 842 24.86 24.8 76.7 24 3.1 37.6
19:25 1013 29.91 842 24.86 24.7 76.5 23 2.6 36.7
19:30 1013 29.91 842 24.86 24.7 76.4 24 3.3 37.9
19:35 1013 29.91 842 24.86 24.6 76.2 31 6.6 43.9
19:40 1012 29.88 842 24.86 24.1 75.4 29 5.4 41.7
19:45 1012 29.88 842 24.86 23.9 75.1 26 3.5 38.3
19:50 1012 29.88 842 24.86 24.1 75.3 28 4.9 40.7
19:55 1012 29.88 842 24.86 24.1 75.3 27 3.9 39.1
20:00 1012 29.88 842 24.86 24.1 75.5 27 4.1 39.3
20:05 1012 29.88 842 24.86 24 75.2 25 2.9 37.2
20:10 1012 29.88 842 24.86 24 75.2 27 4 39.1
20:15 1012 29.88 842 24.86 23.9 75.1 26 3.3 37.9
20:20 1012 29.88 842 24.86 23.7 74.6 27 4 39.2
20:25 1012 29.88 842 24.86 23.6 74.6 26 3.3 38
20:30 1012 29.88 842 24.86 23.5 74.2 27 3.7 38.7
20:35 1012 29.88 842 24.86 23.2 73.7 32 5.8 42.4
20:40 1013 29.91 842 24.86 22.7 72.8 35 6.6 44
20:45 1013 29.91 842 24.86 22.2 71.9 37 7 44.6
20:50 1013 29.91 842 24.86 21.9 71.3 39 7.5 45.5
20:55 1013 29.91 842 24.86 21.5 70.6 40 7.4 45.3
21:00 1013 29.91 842 24.86 21.1 70 42 8 46.3
21:05 1013 29.91 842 24.86 20.9 69.6 44 8.3 47
21:10 1013 29.91 842 24.86 20.7 69.3 43 7.8 46
21:15 1013 29.91 842 24.86 20.5 68.9 43 7.6 45.7
21:20 1013 29.91 842 24.86 20.3 68.6 43 7.6 45.7
21:25 1013 29.91 842 24.86 20.2 68.3 41 6.7 44
21:30 1013 29.91 842 24.86 20.1 68.2 43 7.2 45
21:35 1013 29.91 842 24.86 19.9 67.9 47 8.5 47.3
21:40 1013 29.91 842 24.86 19.8 67.7 45 7.6 45.6
21:45 1013 29.91 842 24.86 19.7 67.4 46 7.9 46.2
21:50 1013 29.91 842 24.86 19.7 67.4 45 7.5 45.5
21:55 1013 29.91 842 24.86 19.6 67.2 46 7.9 46.2
22:00 1013 29.91 842 24.86 19.4 66.8 47 7.9 46.2
22:05 1013 29.91 842 24.86 19.2 66.6 45 7.2 45
22:10 1013 29.91 842 24.86 19.3 66.7 44 7 44.6
22:15 1013 29.91 842 24.86 19.2 66.6 44 6.8 44.2
22:20 1013 29.91 842 24.86 19.2 66.5 45 7.1 44.7
22:25 1013 29.91 842 24.86 19.1 66.3 44 6.8 44.2
22:30 1013 29.91 842 24.86 19 66.1 45 6.7 44.1
22:35 1013 29.91 842 24.86 18.9 66.1 43 6.1 42.9
22:40 1013 29.91 843 24.89 18.8 65.9 45 6.8 44.3
22:45 1013 29.91 843 24.89 18.9 66 43 6.3 43.3
22:50 1013 29.91 843 24.89 19 66.1 43 6.3 43.3
22:55 1013 29.91 843 24.89 19 66.2 46 7.1 44.8
23:00 1013 29.91 843 24.89 19.2 66.5 43 6.5 43.8
23:05 1013 29.91 843 24.89 19.2 66.5 44 6.7 44
23:10 1013 29.91 843 24.89 19.2 66.6 43 6.4 43.5
23:15 1013 29.91 843 24.89 19 66.2 40 5.4 41.7
23:20 1013 29.91 843 24.89 19.1 66.4 42 5.9 42.7
23:25 1013 29.91 843 24.89 19 66.2 42 6.1 42.9
23:30 1014 29.94 843 24.89 18.9 66 43 6.1 43
23:35 1014 29.94 843 24.89 18.7 65.7 46 6.9 44.4
23:40 1014 29.94 843 24.89 18.4 65.1 46 6.7 44.1
23:45 1014 29.94 843 24.89 18.5 65.2 48 7.2 45
23:50 1014 29.94 843 24.89 18.8 65.9 41 5.5 41.9
23:55 1014 29.94 843 24.89 19 66.1 44 6.7 44
24:00 1014 29.94 843 24.89 18.9 66.1 42 6 42.8